createdAt,value
2022-11-06T00:00:46.456Z,5.30
2022-11-06T00:03:48.959Z,5.05
2022-11-06T00:06:50.736Z,4.40
2022-11-06T00:12:55.558Z,5.20
2022-11-06T00:16:03.519Z,5.07
2022-11-06T00:19:06.414Z,5.93
2022-11-06T00:22:08.861Z,5.63
2022-11-06T00:25:11.669Z,5.97
2022-11-06T00:28:14.539Z,6.35
2022-11-06T00:31:24.092Z,6.93
2022-11-06T00:34:26.602Z,6.75
2022-11-06T00:37:29.141Z,6.70
2022-11-06T00:40:31.662Z,6.57
2022-11-06T00:43:35.754Z,6.50
2022-11-06T00:46:39.593Z,6.43
2022-11-06T00:49:42.153Z,7.85
2022-11-06T00:52:44.873Z,8.68
2022-11-06T00:55:47.352Z,8.27
2022-11-06T00:58:49.844Z,8.18
2022-11-06T01:01:53.721Z,7.38
2022-11-06T01:04:56.273Z,7.32
2022-11-06T01:07:58.723Z,7.60
2022-11-06T01:11:07.439Z,8.05
2022-11-06T01:14:12.754Z,6.85
2022-11-06T01:17:16.569Z,8.48
2022-11-06T01:20:19.161Z,7.57
2022-11-06T01:23:21.703Z,7.60
2022-11-06T01:26:37.203Z,8.10
2022-11-06T01:29:41.002Z,7.82
2022-11-06T01:32:44.785Z,7.78
2022-11-06T01:35:48.327Z,6.97
2022-11-06T01:38:53.367Z,8.18
2022-11-06T01:41:56.282Z,7.80
2022-11-06T01:45:34.444Z,7.88
2022-11-06T01:48:40.564Z,8.73
2022-11-06T01:51:48.419Z,9.02
2022-11-06T01:55:01.689Z,7.90
2022-11-06T01:58:06.687Z,8.93
2022-11-06T02:01:09.342Z,8.48
2022-11-06T02:04:16.778Z,8.73
2022-11-06T02:07:20.788Z,8.98
2022-11-06T02:10:23.543Z,8.73
2022-11-06T02:13:38.536Z,9.18
2022-11-06T02:16:47.738Z,8.88
2022-11-06T02:20:02.245Z,9.27
2022-11-06T02:23:26.217Z,8.38
2022-11-06T02:26:47.062Z,9.90
2022-11-06T02:29:57.445Z,9.25
2022-11-06T02:33:03.997Z,8.48
2022-11-06T02:36:10.909Z,9.23
2022-11-06T02:39:17.739Z,9.02
2022-11-06T02:42:21.937Z,8.80
2022-11-06T02:45:26.754Z,9.35
2022-11-06T02:48:34.984Z,9.20
2022-11-06T02:51:50.397Z,9.00
2022-11-06T02:54:58.956Z,9.02
2022-11-06T02:58:09.512Z,9.40
2022-11-06T03:01:19.089Z,9.80
2022-11-06T03:04:27.684Z,9.18
2022-11-06T03:07:36.367Z,9.20
2022-11-06T03:10:44.629Z,8.52
2022-11-06T03:13:55.206Z,9.57
2022-11-06T03:17:00.493Z,9.40
2022-11-06T03:20:11.223Z,9.02
2022-11-06T03:23:19.426Z,9.88
2022-11-06T03:26:27.890Z,8.68
2022-11-06T03:29:40.734Z,9.05
2022-11-06T03:32:50.081Z,8.55
2022-11-06T03:35:57.924Z,8.65
2022-11-06T03:39:04.038Z,8.85
2022-11-06T03:42:11.925Z,8.32
2022-11-06T03:45:19.092Z,8.15
2022-11-06T03:48:27.225Z,8.23
2022-11-06T03:51:37.493Z,8.85
2022-11-06T03:54:45.247Z,8.50
2022-11-06T03:57:53.514Z,8.13
2022-11-06T04:00:59.332Z,8.52
2022-11-06T04:04:06.888Z,8.02
2022-11-06T04:07:13.279Z,9.75
2022-11-06T04:10:33.614Z,9.70
2022-11-06T04:13:56.152Z,9.50
2022-11-06T04:17:03.142Z,9.30
2022-11-06T04:20:32.809Z,9.38
2022-11-06T04:23:44.945Z,9.25
2022-11-06T04:26:55.905Z,9.73
2022-11-06T04:30:06.295Z,9.07
2022-11-06T04:33:15.485Z,8.38
2022-11-06T04:36:27.193Z,8.90
2022-11-06T04:39:37.730Z,9.40
2022-11-06T04:42:49.074Z,8.80
2022-11-06T04:45:56.062Z,9.80
2022-11-06T04:49:02.820Z,9.82
2022-11-06T04:52:08.317Z,9.57
2022-11-06T04:55:10.830Z,9.25
2022-11-06T04:58:13.886Z,9.77
2022-11-06T05:01:16.623Z,8.57
2022-11-06T05:04:20.654Z,9.07
2022-11-06T05:07:23.209Z,8.93
2022-11-06T05:10:25.700Z,9.57
2022-11-06T05:13:28.166Z,9.75
2022-11-06T05:16:30.927Z,9.25
2022-11-06T05:19:34.723Z,10.10
2022-11-06T05:23:00.632Z,10.20
2022-11-06T05:26:03.242Z,10.98
2022-11-06T05:29:06.046Z,11.13
2022-11-06T05:32:08.498Z,10.00
2022-11-06T05:35:12.311Z,10.98
2022-11-06T05:38:15.158Z,10.30
2022-11-06T05:41:17.947Z,11.20
2022-11-06T05:44:20.436Z,10.90
2022-11-06T05:47:23.162Z,11.18
2022-11-06T05:50:27.441Z,9.98
2022-11-06T05:53:30.809Z,10.65
2022-11-06T05:56:33.262Z,10.82
2022-11-06T05:59:35.737Z,10.25
2022-11-06T06:02:39.105Z,10.65
2022-11-06T06:05:42.956Z,11.60
2022-11-06T06:08:45.412Z,11.43
2022-11-06T06:11:51.788Z,12.35
2022-11-06T06:14:54.657Z,11.60
2022-11-06T06:17:58.651Z,12.40
2022-11-06T06:21:02.583Z,12.77
2022-11-06T06:24:05.905Z,11.32
2022-11-06T06:27:08.746Z,10.82
2022-11-06T06:30:12.673Z,11.77
2022-11-06T06:33:15.165Z,11.43
2022-11-06T06:36:18.968Z,11.40
2022-11-06T06:39:21.817Z,11.35
2022-11-06T06:42:30.198Z,11.43
2022-11-06T06:45:33.674Z,11.30
2022-11-06T06:48:36.439Z,11.38
2022-11-06T06:51:40.324Z,11.40
2022-11-06T06:54:42.798Z,12.32
2022-11-06T06:57:45.266Z,10.70
2022-11-06T07:00:48.234Z,9.88
2022-11-06T07:03:50.900Z,10.95
2022-11-06T07:06:55.601Z,9.80
2022-11-06T07:09:58.072Z,9.75
2022-11-06T07:13:02.165Z,9.40
2022-11-06T07:16:06.708Z,10.70
2022-11-06T07:19:09.263Z,8.93
2022-11-06T07:22:13.075Z,9.48
2022-11-06T07:25:15.727Z,8.65
2022-11-06T07:28:18.537Z,8.85
2022-11-06T07:31:21.318Z,9.10
2022-11-06T07:34:23.838Z,8.55
2022-11-06T07:37:27.662Z,9.18
2022-11-06T07:40:30.119Z,8.73
2022-11-06T07:43:32.782Z,9.23
2022-11-06T07:46:35.420Z,8.52
2022-11-06T07:49:37.981Z,8.10
2022-11-06T07:52:41.849Z,8.68
2022-11-06T07:55:49.205Z,7.97
2022-11-06T07:58:51.679Z,8.32
2022-11-06T08:01:54.414Z,8.30
2022-11-06T08:04:56.995Z,8.82
2022-11-06T08:08:00.774Z,7.25
2022-11-06T08:11:03.998Z,8.63
2022-11-06T08:14:06.496Z,8.23
2022-11-06T08:17:09.177Z,7.57
2022-11-06T08:20:12.248Z,7.32
2022-11-06T08:23:16.022Z,7.47
2022-11-06T08:26:18.590Z,7.70
2022-11-06T08:29:21.061Z,6.68
2022-11-06T08:32:23.596Z,8.10
2022-11-06T08:35:26.093Z,7.30
2022-11-06T08:38:29.919Z,7.22
2022-11-06T08:41:32.377Z,6.88
2022-11-06T08:44:34.850Z,7.32
2022-11-06T08:47:37.315Z,6.57
2022-11-06T08:50:41.405Z,7.45
2022-11-06T08:53:45.315Z,6.13
2022-11-06T08:56:48.896Z,7.05
2022-11-06T08:59:51.330Z,6.60
2022-11-06T09:02:59.027Z,6.65
2022-11-06T09:06:01.604Z,7.35
2022-11-06T09:09:05.721Z,7.25
2022-11-06T09:12:09.011Z,6.50
2022-11-06T09:15:11.794Z,6.85
2022-11-06T09:18:14.363Z,7.00
2022-11-06T09:21:16.895Z,7.38
2022-11-06T09:24:37.180Z,6.18
2022-11-06T09:27:44.291Z,6.90
2022-11-06T09:30:46.839Z,6.95
2022-11-06T09:33:51.026Z,6.88
2022-11-06T09:36:53.542Z,6.65
2022-11-06T09:40:01.787Z,5.63
2022-11-06T09:43:27.344Z,5.72
2022-11-06T09:46:43.899Z,6.22
2022-11-06T09:49:50.810Z,6.53
2022-11-06T09:53:03.075Z,5.45
2022-11-06T09:56:13.891Z,4.80
2022-11-06T09:59:19.794Z,5.72
2022-11-06T10:02:31.856Z,6.13
2022-11-06T10:05:37.998Z,6.18
2022-11-06T10:08:43.830Z,5.18
2022-11-06T10:11:59.242Z,4.88
2022-11-06T10:15:08.534Z,5.63
2022-11-06T10:18:18.656Z,5.13
2022-11-06T10:21:24.884Z,5.13
2022-11-06T10:24:38.373Z,4.80
2022-11-06T10:27:48.027Z,5.00
2022-11-06T10:30:59.970Z,4.60
2022-11-06T10:37:12.705Z,4.97
2022-11-06T10:40:19.503Z,5.07
2022-11-06T10:43:28.401Z,4.82
2022-11-06T10:46:35.880Z,4.60
2022-11-06T10:49:45.654Z,4.57
2022-11-06T10:52:54.674Z,5.50
2022-11-06T10:56:28.747Z,4.05
2022-11-06T10:59:33.129Z,4.70
2022-11-06T11:02:40.620Z,5.00
2022-11-06T11:05:44.664Z,4.55
2022-11-06T11:08:48.863Z,4.40
2022-11-06T11:11:51.362Z,4.47
2022-11-06T11:15:13.651Z,4.22
2022-11-06T11:18:23.019Z,4.30
2022-11-06T11:21:27.809Z,4.60
2022-11-06T11:24:30.643Z,4.20
2022-11-06T11:27:38.309Z,4.47
2022-11-06T11:30:42.158Z,4.28
2022-11-06T11:33:51.893Z,4.32
2022-11-06T11:36:58.117Z,4.20
2022-11-06T11:40:20.817Z,3.80
2022-11-06T11:43:26.186Z,4.18
2022-11-06T11:46:29.981Z,4.20
2022-11-06T11:49:34.025Z,3.50
2022-11-06T11:52:42.668Z,4.50
2022-11-06T11:55:48.963Z,3.70
2022-11-06T11:58:54.281Z,3.80
2022-11-06T12:02:02.240Z,3.97
2022-11-06T12:05:10.344Z,4.10
2022-11-06T12:08:22.762Z,3.83
2022-11-06T12:11:27.442Z,3.55
2022-11-06T12:14:34.064Z,4.18
2022-11-06T12:17:41.533Z,3.40
2022-11-06T12:20:51.599Z,3.35
2022-11-06T12:23:58.707Z,3.83
2022-11-06T12:27:05.738Z,3.38
2022-11-06T12:30:12.282Z,3.40
2022-11-06T12:33:20.302Z,3.38
2022-11-06T12:36:29.302Z,3.55
2022-11-06T12:39:35.519Z,3.95
2022-11-06T12:42:38.858Z,3.50
2022-11-06T12:46:08.491Z,4.28
2022-11-06T12:49:23.524Z,3.47
2022-11-06T12:52:38.559Z,3.67
2022-11-06T12:55:44.802Z,3.47
2022-11-06T12:59:06.594Z,3.67
2022-11-06T13:02:25.583Z,3.28
2022-11-06T13:05:34.660Z,3.75
2022-11-06T13:08:46.712Z,3.40
2022-11-06T13:11:55.026Z,4.35
2022-11-06T13:15:12.313Z,3.83
2022-11-06T13:18:19.821Z,4.22
2022-11-06T13:21:31.847Z,3.70
2022-11-06T13:24:38.772Z,4.32
2022-11-06T13:27:48.557Z,3.58
2022-11-06T13:30:52.865Z,3.30
2022-11-06T13:33:59.505Z,3.63
2022-11-06T13:37:07.264Z,3.70
2022-11-06T13:40:22.595Z,3.05
2022-11-06T13:43:29.829Z,3.75
2022-11-06T13:46:40.596Z,3.25
2022-11-06T13:49:49.054Z,2.88
2022-11-06T13:52:59.447Z,3.00
2022-11-06T13:56:15.150Z,3.25
2022-11-06T13:59:55.582Z,3.17
2022-11-06T14:03:30.906Z,2.80
2022-11-06T14:06:36.026Z,3.17
2022-11-06T14:09:45.217Z,3.25
2022-11-06T14:12:49.069Z,2.78
2022-11-06T14:16:00.846Z,2.92
2022-11-06T14:19:08.279Z,2.78
2022-11-06T14:22:25.630Z,3.55
2022-11-06T14:26:00.302Z,3.00
2022-11-06T14:29:37.043Z,2.80
2022-11-06T14:32:46.051Z,3.20
2022-11-06T14:35:53.615Z,3.15
2022-11-06T14:38:57.303Z,3.30
2022-11-06T14:42:03.328Z,3.10
2022-11-06T14:45:14.386Z,3.05
2022-11-06T14:48:28.007Z,2.73
2022-11-06T14:51:31.349Z,3.10
2022-11-06T14:54:40.540Z,2.88
2022-11-06T14:57:47.963Z,3.20
2022-11-06T15:00:55.234Z,2.65
2022-11-06T15:04:03.050Z,2.70
2022-11-06T15:07:10.772Z,2.92
2022-11-06T15:10:47.393Z,2.55
2022-11-06T15:13:51.973Z,2.42
2022-11-06T15:17:04.037Z,2.63
2022-11-06T15:20:18.638Z,2.83
2022-11-06T15:23:28.400Z,2.80
2022-11-06T15:26:42.365Z,3.05
2022-11-06T15:29:49.825Z,2.92
2022-11-06T15:32:54.917Z,2.75
2022-11-06T15:36:03.193Z,2.40
2022-11-06T15:39:24.977Z,2.95
2022-11-06T15:42:30.977Z,2.70
2022-11-06T15:45:34.901Z,3.20
2022-11-06T15:48:37.631Z,3.30
2022-11-06T15:51:41.111Z,2.60
2022-11-06T15:54:44.402Z,3.05
2022-11-06T15:57:46.918Z,2.95
2022-11-06T16:00:50.868Z,2.65
2022-11-06T16:03:55.668Z,2.70
2022-11-06T16:06:58.400Z,3.17
2022-11-06T16:10:01.126Z,3.10
2022-11-06T16:13:05.247Z,2.53
2022-11-06T16:16:33.846Z,2.60
2022-11-06T16:19:39.988Z,2.90
2022-11-06T16:22:43.085Z,2.75
2022-11-06T16:25:46.348Z,2.95
2022-11-06T16:28:51.232Z,2.83
2022-11-06T16:32:03.335Z,3.17
2022-11-06T16:35:31.304Z,3.05
2022-11-06T16:38:43.442Z,3.58
2022-11-06T16:42:01.587Z,3.20
2022-11-06T16:45:17.761Z,3.65
2022-11-06T16:48:35.778Z,3.10
2022-11-06T16:51:38.591Z,3.80
2022-11-06T16:54:41.111Z,3.95
2022-11-06T16:57:46.058Z,2.72
2022-11-06T17:00:58.859Z,3.58
2022-11-06T17:04:05.293Z,3.20
2022-11-06T17:07:20.824Z,3.55
2022-11-06T17:10:37.269Z,3.17
2022-11-06T17:13:42.288Z,3.42
2022-11-06T17:16:50.565Z,2.75
2022-11-06T17:19:54.702Z,3.17
2022-11-06T17:22:57.173Z,3.20
2022-11-06T17:26:03.041Z,2.30
2022-11-06T17:29:06.081Z,3.25
2022-11-06T17:32:08.530Z,3.38
2022-11-06T17:35:12.334Z,3.13
2022-11-06T17:38:15.778Z,3.38
2022-11-06T17:41:29.779Z,2.88
2022-11-06T17:44:32.489Z,2.95
2022-11-06T17:47:35.032Z,2.85
2022-11-06T17:50:52.821Z,3.05
2022-11-06T17:53:55.267Z,3.33
2022-11-06T17:56:59.715Z,2.85
2022-11-06T18:00:02.209Z,3.63
2022-11-06T18:03:05.231Z,3.20
2022-11-06T18:06:11.609Z,3.40
2022-11-06T18:09:14.769Z,3.40
2022-11-06T18:12:19.250Z,2.78
2022-11-06T18:15:21.696Z,3.38
2022-11-06T18:18:24.571Z,3.00
2022-11-06T18:21:28.550Z,3.25
2022-11-06T18:24:31.042Z,2.88
2022-11-06T18:27:33.517Z,3.25
2022-11-06T18:30:35.976Z,2.80
2022-11-06T18:33:38.522Z,4.05
2022-11-06T18:36:42.323Z,3.15
2022-11-06T18:39:44.902Z,3.22
2022-11-06T18:42:47.360Z,3.13
2022-11-06T18:45:50.446Z,3.63
2022-11-06T18:48:53.068Z,4.20
2022-11-06T18:51:56.896Z,3.35
2022-11-06T18:55:01.003Z,3.55
2022-11-06T18:58:03.634Z,3.53
2022-11-06T19:01:07.080Z,3.20
2022-11-06T19:04:10.955Z,3.45
2022-11-06T19:07:18.429Z,3.58
2022-11-06T19:10:20.906Z,3.20
2022-11-06T19:13:23.608Z,3.85
2022-11-06T19:16:26.323Z,4.07
2022-11-06T19:19:28.958Z,4.15
2022-11-06T19:22:33.870Z,4.32
2022-11-06T19:25:36.314Z,4.35
2022-11-06T19:28:40.283Z,4.68
2022-11-06T19:31:43.036Z,3.47
2022-11-06T19:34:45.504Z,4.75
2022-11-06T19:37:49.372Z,4.65
2022-11-06T19:40:56.157Z,5.10
2022-11-06T19:43:58.791Z,5.03
2022-11-06T19:47:01.286Z,4.30
2022-11-06T19:50:05.095Z,4.30
2022-11-06T19:53:08.896Z,4.82
2022-11-06T19:56:16.448Z,5.45
2022-11-06T19:59:19.168Z,5.25
2022-11-06T20:02:21.831Z,5.70
2022-11-06T20:05:24.431Z,6.40
2022-11-06T20:08:28.253Z,6.28
2022-11-06T20:11:30.713Z,6.20
2022-11-06T20:14:33.316Z,6.20
2022-11-06T20:17:35.805Z,5.50
2022-11-06T20:20:38.320Z,7.13
2022-11-06T20:23:42.162Z,5.97
2022-11-06T20:26:44.681Z,6.50
2022-11-06T20:29:47.149Z,7.30
2022-11-06T20:32:49.759Z,6.95
2022-11-06T20:35:52.315Z,7.55
2022-11-06T20:38:59.014Z,7.13
2022-11-06T20:42:01.462Z,8.13
2022-11-06T20:45:04.181Z,8.40
2022-11-06T20:48:09.079Z,8.25
2022-11-06T20:51:14.538Z,8.50
2022-11-06T20:54:18.614Z,7.45
2022-11-06T20:57:21.080Z,7.53
2022-11-06T21:00:23.601Z,8.52
2022-11-06T21:03:26.051Z,8.38
2022-11-06T21:06:29.953Z,8.23
2022-11-06T21:09:33.788Z,7.80
2022-11-06T21:12:36.238Z,9.10
2022-11-06T21:15:38.730Z,9.07
2022-11-06T21:18:42.011Z,8.65
2022-11-06T21:21:44.550Z,8.93
2022-11-06T21:24:48.334Z,9.63
2022-11-06T21:27:50.769Z,8.70
2022-11-06T21:30:53.732Z,8.90
2022-11-06T21:33:58.686Z,8.40
2022-11-06T21:37:02.817Z,8.35
2022-11-06T21:40:09.650Z,9.02
2022-11-06T21:43:12.470Z,8.95
2022-11-06T21:46:15.684Z,8.50
2022-11-06T21:49:18.346Z,8.73
2022-11-06T21:52:39.086Z,9.80
2022-11-06T21:56:01.843Z,8.98
2022-11-06T21:59:05.962Z,9.60
2022-11-06T22:02:10.254Z,9.52
2022-11-06T22:05:12.873Z,9.75
2022-11-06T22:08:15.608Z,10.07
2022-11-06T22:11:22.077Z,9.10
2022-11-06T22:14:24.700Z,9.73
2022-11-06T22:17:27.273Z,10.25
2022-11-06T22:20:29.784Z,11.00
2022-11-06T22:23:32.443Z,11.13
2022-11-06T22:26:37.749Z,10.48
2022-11-06T22:29:40.329Z,11.07
2022-11-06T22:32:42.964Z,11.88
2022-11-06T22:35:45.441Z,10.95
2022-11-06T22:38:48.759Z,10.70
2022-11-06T22:41:52.767Z,11.80
2022-11-06T22:44:55.302Z,10.77
2022-11-06T22:47:58.122Z,12.13
2022-11-06T22:51:02.958Z,10.23
2022-11-06T22:54:06.056Z,11.23
2022-11-06T22:57:10.039Z,11.18
2022-11-06T23:00:14.081Z,11.13
2022-11-06T23:03:16.902Z,11.20
2022-11-06T23:06:19.623Z,11.43
2022-11-06T23:09:22.085Z,11.45
2022-11-06T23:12:25.864Z,11.00
2022-11-06T23:15:28.353Z,11.32
2022-11-06T23:18:30.853Z,11.57
2022-11-06T23:21:33.317Z,11.10
2022-11-06T23:24:35.812Z,11.75
2022-11-06T23:27:43.284Z,11.15
2022-11-06T23:30:48.113Z,11.05
2022-11-06T23:33:50.862Z,11.52
2022-11-06T23:36:53.336Z,11.52
2022-11-06T23:39:55.800Z,11.57
2022-11-06T23:42:59.601Z,12.38
2022-11-06T23:46:01.103Z,12.07
2022-11-06T23:49:03.671Z,12.10
2022-11-06T23:52:06.343Z,11.85
2022-11-06T23:55:09.514Z,11.85
2022-11-06T23:58:13.302Z,12.48
